NO-0026 weather

Evje Airfield
Evje og Hornnes, Aust-Agder, Norway

Public forecast

Using degrees Celsius for public forecast. Weather courtesy of forecast.io.

METAR (pilot weather report)

Closest report is Kristiansand Airport, 25.5 nm (47.3 km) SSE. Retrieved 2019/05/25 06:20 UTC (6 minutes ago):

ENCN 250620Z 32013KT CAVOK 14/04 Q1008

TAF (pilot weather forecast)

Forecast is more than 12 hours old.

Closest forecast is Kristiansand Airport, 25.5 nm (47.3 km) SSE. Retrieved 2016/05/06 12:39 UTC (3 years ago):

TAF TAF ENCN 061100Z 0612/0712 14008KT 9999 FEW040